This is the latest recevied weather packets stored in our database for station/object N0SWP-3. If no packets are shown the sender has not sent any weather packets the latest 10 day(s).
| Time | Temp. | Humidity | Pressure | Rain* | Wind** | Luminosity | Snow |
|---|---|---|---|---|---|---|---|
| 1777574657 | 20.56° C | 45% | 1017.6 hPa | 0 mm | - | - | - |
| 1777574163 | 20.56° C | 43% | 1017.6 hPa | 0 mm | - | - | - |
| 1777572496 | 20° C | 44% | 1018.2 hPa | 0 mm | - | - | - |
| 1777572003 | 20.56° C | 43% | 1018.3 hPa | 0 mm | - | - | - |
| 1777571283 | 19.44° C | 46% | 1018.4 hPa | 0 mm | - | - | - |
| 1777568403 | 18.89° C | 46% | 1019.1 hPa | 0 mm | - | - | - |
| 1777567683 | 18.89° C | 47% | 1019.3 hPa | 0 mm | - | - | - |
| 1777566424 | 18.33° C | 49% | 1019.6 hPa | 0 mm | - | - | - |
| 1777566063 | 17.78° C | 51% | 1019.7 hPa | 0 mm | - | - | - |
| 1777564624 | 16.67° C | 54% | 1019.8 hPa | 0 mm | - | - | - |
| 1777563723 | 16.11° C | 56% | 1019.8 hPa | 0 mm | - | - | - |
| 1777562643 | 16.11° C | 56% | 1020 hPa | 0 mm | - | - | - |
| 1777562283 | 15.56° C | 58% | 1020 hPa | 0 mm | - | - | - |
| 1777561383 | 15° C | 62% | 1020.2 hPa | 0 mm | - | - | - |
| 1777560843 | 14.44° C | 68% | 1020.2 hPa | 0 mm | - | - | - |
| 1777557783 | 11.11° C | 89% | 1020 hPa | 0 mm | - | - | - |
| 1777556883 | 10° C | 93% | 1020 hPa | 0 mm | - | - | - |
| 1777556343 | 9.44° C | 96% | 1020 hPa | 0 mm | - | - | - |
| 1777556117 | 8.89° C | 97% | 1020 hPa | 0 mm | - | - | - |
| 1777554545 | 7.22° C | 97% | 1019.8 hPa | 0 mm | - | - | - |
| 1777553283 | 5.56° C | 97% | 1019.7 hPa | 0 mm | - | - | - |
| 1777553103 | 5.56° C | 97% | 1019.7 hPa | 0 mm | - | - | - |
| 1777552338 | 5° C | 97% | 1019.8 hPa | 0 mm | - | - | - |
| 1777551843 | 5° C | 97% | 1019.7 hPa | 0 mm | - | - | - |
| 1777551483 | 4.44° C | 96% | 1019.6 hPa | 0 mm | - | - | - |
* Rain latest hour (hover to see other rain measurements)
** Current wind speed in m/s (hover to see current wind gust speed)